createdAt,value
2022-10-23T00:00:18.712Z,10.32
2022-10-23T00:01:18.820Z,10.4
2022-10-23T00:02:19.018Z,10.4
2022-10-23T00:03:19.122Z,10.32
2022-10-23T00:04:19.300Z,10.24
2022-10-23T00:05:19.429Z,10.08
2022-10-23T00:06:19.574Z,10.24
2022-10-23T00:07:19.758Z,10.24
2022-10-23T00:08:19.884Z,10.24
2022-10-23T00:09:20.036Z,10.08
2022-10-23T00:10:20.195Z,10.24
2022-10-23T00:11:20.295Z,10.32
2022-10-23T00:12:20.441Z,10.32
2022-10-23T00:13:20.589Z,10.24
2022-10-23T00:14:20.757Z,10.24
2022-10-23T00:15:20.914Z,10.24
2022-10-23T00:16:21.041Z,10.24
2022-10-23T00:17:21.160Z,10.08
2022-10-23T00:18:21.297Z,10.08
2022-10-23T00:19:21.448Z,10
2022-10-23T00:20:21.581Z,10.08
2022-10-23T00:21:21.716Z,10
2022-10-23T00:22:21.861Z,10
2022-10-23T00:23:22.024Z,10
2022-10-23T00:24:22.164Z,10.08
2022-10-23T00:25:22.331Z,10
2022-10-23T00:26:22.541Z,10
2022-10-23T00:27:22.661Z,10
2022-10-23T00:28:22.823Z,10
2022-10-23T00:29:22.980Z,10
2022-10-23T00:30:23.129Z,9.92
2022-10-23T00:31:23.264Z,9.92
2022-10-23T00:32:23.397Z,10
2022-10-23T00:33:23.491Z,9.92
2022-10-23T00:34:23.623Z,9.92
2022-10-23T00:35:23.731Z,9.84
2022-10-23T00:36:23.883Z,9.92
2022-10-23T00:37:24.027Z,9.92
2022-10-23T00:38:24.185Z,9.679999
2022-10-23T00:39:24.286Z,9.679999
2022-10-23T00:40:24.435Z,9.679999
2022-10-23T00:41:24.589Z,9.679999
2022-10-23T00:42:24.705Z,9.679999
2022-10-23T00:43:24.845Z,9.84
2022-10-23T00:44:24.949Z,9.84
2022-10-23T00:45:25.121Z,9.84
2022-10-23T00:46:25.243Z,9.679999
2022-10-23T00:47:25.396Z,9.679999
2022-10-23T00:48:25.506Z,9.599999
2022-10-23T00:49:25.669Z,9.599999
2022-10-23T00:50:25.818Z,9.679999
2022-10-23T00:51:25.954Z,9.679999
2022-10-23T00:52:26.061Z,9.599999
2022-10-23T00:53:26.222Z,9.52
2022-10-23T00:54:26.370Z,9.599999
2022-10-23T00:55:26.517Z,9.599999
2022-10-23T00:56:26.659Z,9.52
2022-10-23T00:58:27.720Z,9.599999
2022-10-23T00:59:27.077Z,9.599999
2022-10-23T01:00:27.226Z,9.52
2022-10-23T01:01:27.444Z,9.599999
2022-10-23T01:02:27.587Z,9.52
2022-10-23T01:03:27.627Z,9.599999
2022-10-23T01:04:27.773Z,9.599999
2022-10-23T01:05:27.926Z,9.599999
2022-10-23T01:06:28.029Z,9.599999
2022-10-23T01:07:28.177Z,9.52
2022-10-23T01:08:28.335Z,9.599999
2022-10-23T01:09:28.481Z,9.599999
2022-10-23T01:10:28.636Z,9.52
2022-10-23T01:11:28.788Z,9.52
2022-10-23T01:12:28.891Z,9.36
2022-10-23T01:13:29.040Z,9.36
2022-10-23T01:14:29.207Z,9.36
2022-10-23T01:15:29.312Z,9.36
2022-10-23T01:16:29.446Z,9.36
2022-10-23T01:17:29.607Z,9.52
2022-10-23T01:18:29.752Z,9.52
2022-10-23T01:19:29.855Z,9.52
2022-10-23T01:20:30.004Z,9.52
2022-10-23T01:21:30.104Z,9.36
2022-10-23T01:22:30.253Z,9.36
2022-10-23T01:23:30.407Z,9.36
2022-10-23T01:24:30.554Z,9.36
2022-10-23T01:25:30.710Z,9.36
2022-10-23T01:26:30.812Z,9.28
2022-10-23T01:27:30.961Z,9.36
2022-10-23T01:28:31.113Z,9.36
2022-10-23T01:29:31.265Z,9.52
2022-10-23T01:30:31.479Z,9.52
2022-10-23T01:31:31.568Z,9.52
2022-10-23T01:32:31.680Z,9.52
2022-10-23T01:33:31.827Z,9.36
2022-10-23T01:34:31.977Z,9.36
2022-10-23T01:35:32.077Z,9.36
2022-10-23T01:36:32.230Z,9.36
2022-10-23T01:37:32.386Z,9.599999
2022-10-23T01:38:32.536Z,9.52
2022-10-23T01:39:32.685Z,9.599999
2022-10-23T01:40:32.839Z,9.599999
2022-10-23T01:41:32.990Z,9.52
2022-10-23T01:42:33.141Z,9.52
2022-10-23T01:43:33.298Z,9.28
2022-10-23T01:44:33.442Z,8.88
2022-10-23T01:45:33.613Z,8.88
2022-10-23T01:46:33.698Z,8.8
2022-10-23T01:47:33.814Z,8.72
2022-10-23T01:48:33.961Z,8.72
2022-10-23T01:49:34.125Z,9.04
2022-10-23T01:50:34.255Z,9.04
2022-10-23T01:51:34.360Z,9.12
2022-10-23T01:52:34.519Z,9.12
2022-10-23T01:53:34.656Z,9.04
2022-10-23T01:54:34.775Z,8.88
2022-10-23T01:55:35.331Z,9.2
2022-10-23T01:56:35.069Z,9.12
2022-10-23T01:57:35.225Z,9.12
2022-10-23T01:58:35.325Z,9.12
2022-10-23T01:59:35.501Z,9.2
2022-10-23T02:00:35.604Z,9.12
2022-10-23T02:01:35.791Z,9.2
2022-10-23T02:02:35.895Z,9.2
2022-10-23T02:03:36.024Z,9.28
2022-10-23T02:04:36.197Z,9.2
2022-10-23T02:05:36.325Z,9.12
2022-10-23T02:06:36.489Z,9.2
2022-10-23T02:07:36.583Z,9.28
2022-10-23T02:08:36.737Z,9.28
2022-10-23T02:09:36.889Z,9.28
2022-10-23T02:10:37.046Z,9.2
2022-10-23T02:11:37.191Z,9.36
2022-10-23T02:12:37.295Z,9.36
2022-10-23T02:13:37.440Z,9.2
2022-10-23T02:14:37.554Z,9.12
2022-10-23T02:15:37.697Z,9.12
2022-10-23T02:16:37.851Z,9.04
2022-10-23T02:17:37.997Z,8.88
2022-10-23T02:18:38.101Z,9.2
2022-10-23T02:19:38.218Z,9.2
2022-10-23T02:20:38.403Z,9.04
2022-10-23T02:21:38.506Z,8.639999
2022-10-23T02:22:38.669Z,8.639999
2022-10-23T02:23:38.808Z,8.639999
2022-10-23T02:24:38.966Z,8.48
2022-10-23T02:25:39.076Z,8.4
2022-10-23T02:26:39.337Z,8.48
2022-10-23T02:27:39.414Z,8.4
2022-10-23T02:28:39.583Z,8.4
2022-10-23T02:29:39.727Z,8.24
2022-10-23T02:30:39.868Z,8.32
2022-10-23T02:31:39.984Z,8.639999
2022-10-23T02:32:40.341Z,8.639999
2022-10-23T02:33:40.285Z,8.639999
2022-10-23T02:34:40.443Z,8.72
2022-10-23T02:35:40.568Z,8.72
2022-10-23T02:36:40.751Z,8.72
2022-10-23T02:37:41.168Z,8.88
2022-10-23T02:38:40.996Z,8.88
2022-10-23T02:39:41.134Z,8.8
2022-10-23T02:40:41.296Z,9.04
2022-10-23T02:41:41.436Z,8.8
2022-10-23T02:42:41.544Z,8.72
2022-10-23T02:43:42.396Z,8.72
2022-10-23T02:44:42.292Z,8.88
2022-10-23T02:45:42.034Z,8.88
2022-10-23T02:46:42.151Z,9.12
2022-10-23T02:47:42.504Z,8.88
2022-10-23T02:48:42.456Z,8.72
2022-10-23T02:49:42.607Z,8.639999
2022-10-23T02:50:42.754Z,8.8
2022-10-23T02:51:43.405Z,8.8
2022-10-23T02:52:43.016Z,9.04
2022-10-23T02:53:44.163Z,9.28
2022-10-23T02:54:43.268Z,9.36
2022-10-23T02:55:43.362Z,9.28
2022-10-23T02:56:43.515Z,9.12
2022-10-23T02:57:43.933Z,9.2
2022-10-23T02:58:43.819Z,9.2
2022-10-23T02:59:43.938Z,9.28
2022-10-23T03:00:44.087Z,9.28
2022-10-23T03:01:44.323Z,9.12
2022-10-23T03:02:44.381Z,8.8
2022-10-23T03:03:44.484Z,8.8
2022-10-23T03:04:44.583Z,8.48
2022-10-23T03:05:44.730Z,8.48
2022-10-23T03:06:44.883Z,8.639999
2022-10-23T03:07:45.170Z,8.32
2022-10-23T03:08:45.195Z,8.4
2022-10-23T03:09:45.287Z,8.72
2022-10-23T03:10:45.457Z,8.48
2022-10-23T03:11:45.594Z,8.4
2022-10-23T03:12:45.847Z,8.48
2022-10-23T03:13:45.855Z,8.48
2022-10-23T03:14:46.006Z,8.639999
2022-10-23T03:15:46.146Z,8.72
2022-10-23T03:16:46.298Z,8.72
2022-10-23T03:17:46.454Z,8.8
2022-10-23T03:18:46.608Z,8.72
2022-10-23T03:19:46.762Z,8.48
2022-10-23T03:20:46.912Z,8.4
2022-10-23T03:21:47.056Z,8.32
2022-10-23T03:22:47.208Z,8.24
2022-10-23T03:23:47.366Z,8.4
2022-10-23T03:24:47.514Z,8.48
2022-10-23T03:25:47.664Z,8.72
2022-10-23T03:26:47.815Z,8.639999
2022-10-23T03:27:47.967Z,8.08
2022-10-23T03:28:48.119Z,8.32
2022-10-23T03:29:48.233Z,8.4
2022-10-23T03:30:48.367Z,8.32
2022-10-23T03:31:48.496Z,8.08
2022-10-23T03:32:48.628Z,8.24
2022-10-23T03:33:48.782Z,8.08
2022-10-23T03:34:48.932Z,8.24
2022-10-23T03:35:49.100Z,8.24
2022-10-23T03:36:49.239Z,8.48
2022-10-23T03:37:49.345Z,8.639999
2022-10-23T03:38:49.487Z,8.4
2022-10-23T03:39:49.638Z,8.4
2022-10-23T03:40:49.793Z,8.639999
2022-10-23T03:41:49.942Z,8.4
2022-10-23T03:42:50.042Z,8.8
2022-10-23T03:43:50.195Z,8.72
2022-10-23T03:44:50.355Z,8.32
2022-10-23T03:45:50.494Z,8.24
2022-10-23T03:46:50.662Z,8.48
2022-10-23T03:47:50.810Z,8.32
2022-10-23T03:48:50.899Z,7.92
2022-10-23T03:49:51.014Z,8.08
2022-10-23T03:50:51.153Z,8
2022-10-23T03:51:51.318Z,7.92
2022-10-23T03:52:51.413Z,8
2022-10-23T03:53:51.567Z,8.08
2022-10-23T03:54:51.723Z,7.84
2022-10-23T03:55:51.868Z,8.24
2022-10-23T03:56:53.593Z,8.32
2022-10-23T03:57:52.118Z,8.88
2022-10-23T03:58:52.270Z,8.72
2022-10-23T03:59:52.395Z,8.8
2022-10-23T04:00:52.519Z,9.52
2022-10-23T04:01:52.749Z,9.04
2022-10-23T04:02:52.779Z,8.32
2022-10-23T04:03:52.932Z,8.32
2022-10-23T04:04:53.083Z,8.24
2022-10-23T04:05:53.184Z,8.24
2022-10-23T04:06:53.333Z,8.4
2022-10-23T04:07:53.484Z,8.4
2022-10-23T04:08:53.640Z,8.4
2022-10-23T04:09:53.794Z,8.4
2022-10-23T04:10:53.949Z,8.48
2022-10-23T04:11:54.046Z,8.639999
2022-10-23T04:12:54.201Z,8.24
2022-10-23T04:13:54.350Z,8.24
2022-10-23T04:14:54.518Z,8.32
2022-10-23T04:15:54.644Z,8.08
2022-10-23T04:16:54.751Z,8.32
2022-10-23T04:17:54.911Z,8.24
2022-10-23T04:18:55.008Z,8.48
2022-10-23T04:19:55.115Z,8.48
2022-10-23T04:20:55.259Z,8.32
2022-10-23T04:21:55.410Z,8.32
2022-10-23T04:22:55.512Z,8.48
2022-10-23T04:23:55.667Z,8.32
2022-10-23T04:24:55.769Z,8.32
2022-10-23T04:25:55.868Z,8.24
2022-10-23T04:26:55.972Z,8
2022-10-23T04:27:56.122Z,8.32
2022-10-23T04:28:56.278Z,8.32
2022-10-23T04:29:56.918Z,8.24
2022-10-23T04:30:56.527Z,8.08
2022-10-23T04:31:56.681Z,7.92
2022-10-23T04:32:56.830Z,7.92
2022-10-23T04:33:57.011Z,7.84
2022-10-23T04:34:57.132Z,7.92
2022-10-23T04:35:57.279Z,7.84
2022-10-23T04:36:57.441Z,7.92
2022-10-23T04:37:57.587Z,7.92
2022-10-23T04:38:57.739Z,8
2022-10-23T04:39:57.896Z,7.92
2022-10-23T04:40:58.042Z,8.24
2022-10-23T04:41:58.198Z,8
2022-10-23T04:42:58.349Z,8.24
2022-10-23T04:43:58.496Z,7.84
2022-10-23T04:44:58.674Z,8.08
2022-10-23T04:45:58.760Z,8.24
2022-10-23T04:46:58.908Z,8.4
2022-10-23T04:47:59.091Z,8.08
2022-10-23T04:48:59.209Z,7.92
2022-10-23T04:49:59.311Z,7.92
2022-10-23T04:50:59.422Z,7.92
2022-10-23T04:51:59.561Z,7.84
2022-10-23T04:52:59.661Z,7.68
2022-10-23T04:53:59.818Z,7.92
2022-10-23T04:54:59.966Z,7.92
2022-10-23T04:56:00.135Z,7.6
2022-10-23T04:57:00.271Z,7.6
2022-10-23T04:58:00.419Z,7.6
2022-10-23T04:59:00.543Z,7.84
2022-10-23T05:00:00.685Z,7.84
2022-10-23T05:01:00.868Z,7.84
2022-10-23T05:02:00.928Z,7.68
2022-10-23T05:03:01.082Z,7.92
2022-10-23T05:04:01.237Z,8.24
2022-10-23T05:05:01.389Z,7.68
2022-10-23T05:06:01.491Z,7.84
2022-10-23T05:07:01.637Z,8.32
2022-10-23T05:08:01.745Z,8.08
2022-10-23T05:09:01.888Z,8
2022-10-23T05:10:02.051Z,8.24
2022-10-23T05:11:02.195Z,7.92
2022-10-23T05:12:02.348Z,7.92
2022-10-23T05:13:02.498Z,8.08
2022-10-23T05:14:02.599Z,8.08
2022-10-23T05:15:02.758Z,8.08
2022-10-23T05:16:02.901Z,8.24
2022-10-23T05:17:03.065Z,8.24
2022-10-23T05:18:03.214Z,8.24
2022-10-23T05:19:03.376Z,8.24
2022-10-23T05:20:03.521Z,8.32
2022-10-23T05:21:03.680Z,8.32
2022-10-23T05:22:03.817Z,8.32
2022-10-23T05:23:03.965Z,8.32
2022-10-23T05:24:04.118Z,8.32
2022-10-23T05:25:04.267Z,8.24
2022-10-23T05:26:04.427Z,8.08
2022-10-23T05:27:04.574Z,8.08
2022-10-23T05:28:04.725Z,8.08
2022-10-23T05:29:04.874Z,8
2022-10-23T05:30:05.040Z,8
2022-10-23T05:31:05.174Z,8.24
2022-10-23T05:32:05.290Z,8.08
2022-10-23T05:33:05.443Z,8.4
2022-10-23T05:34:06.813Z,7.92
2022-10-23T05:35:05.748Z,7.44
2022-10-23T05:36:05.850Z,7.92
2022-10-23T05:37:05.997Z,8
2022-10-23T05:38:06.144Z,7.84
2022-10-23T05:39:06.288Z,7.84
2022-10-23T05:40:06.396Z,8
2022-10-23T05:41:06.521Z,7.84
2022-10-23T05:42:06.654Z,7.6
2022-10-23T05:43:06.834Z,7.84
2022-10-23T05:44:06.951Z,7.92
2022-10-23T05:45:07.116Z,7.68
2022-10-23T05:46:07.253Z,7.6
2022-10-23T05:47:07.404Z,7.44
2022-10-23T05:48:11.157Z,7.28
2022-10-23T05:49:07.654Z,7.52
2022-10-23T05:50:07.813Z,7.28
2022-10-23T05:51:07.961Z,7.52
2022-10-23T05:52:08.115Z,7.52
2022-10-23T05:53:08.269Z,7.52
2022-10-23T05:54:08.369Z,7.52
2022-10-23T05:55:08.528Z,7.44
2022-10-23T05:56:08.686Z,7.52
2022-10-23T05:57:08.854Z,7.6
2022-10-23T05:58:08.973Z,7.52
2022-10-23T05:59:09.130Z,7.44
2022-10-23T06:00:09.236Z,7.6
2022-10-23T06:01:09.380Z,8
2022-10-23T06:02:09.555Z,7.84
2022-10-23T06:03:09.727Z,8.24
2022-10-23T06:04:09.901Z,7.92
2022-10-23T06:05:10.039Z,8
2022-10-23T06:06:10.196Z,7.92
2022-10-23T06:07:10.349Z,7.92
2022-10-23T06:08:10.499Z,7.92
2022-10-23T06:09:10.654Z,7.92
2022-10-23T06:10:10.799Z,8.24
2022-10-23T06:11:10.960Z,7.84
2022-10-23T06:12:11.106Z,8.24
2022-10-23T06:13:11.251Z,7.84
2022-10-23T06:14:11.362Z,7.84
2022-10-23T06:15:11.513Z,7.84
2022-10-23T06:16:11.652Z,9.2
2022-10-23T06:17:11.808Z,9.92
2022-10-23T06:18:11.955Z,9.599999
2022-10-23T06:19:12.110Z,10.08
2022-10-23T06:20:12.262Z,9.92
2022-10-23T06:21:12.408Z,9.36
2022-10-23T06:22:12.557Z,9.04
2022-10-23T06:23:12.666Z,9.12
2022-10-23T06:24:12.821Z,9.599999
2022-10-23T06:25:12.922Z,9.92
2022-10-23T06:26:13.077Z,10.4
2022-10-23T06:27:13.234Z,10.08
2022-10-23T06:28:15.815Z,10.8
2022-10-23T06:29:13.492Z,11.12
2022-10-23T06:30:13.647Z,11.679999
2022-10-23T06:31:13.786Z,11.92
2022-10-23T06:32:13.923Z,12.24
2022-10-23T06:33:14.067Z,12.32
2022-10-23T06:34:14.189Z,12.799999
2022-10-23T06:35:14.344Z,12.719999
2022-10-23T06:36:14.497Z,12.88
2022-10-23T06:37:14.656Z,13.12
2022-10-23T06:38:14.806Z,13.52
2022-10-23T06:39:14.959Z,13.599999
2022-10-23T06:40:15.070Z,14.08
2022-10-23T06:41:15.226Z,14.08
2022-10-23T06:42:15.349Z,14.24
2022-10-23T06:43:15.520Z,14.08
2022-10-23T06:44:15.667Z,13.92
2022-10-23T06:45:15.828Z,13.84
2022-10-23T06:46:15.956Z,14.639999
2022-10-23T06:48:17.286Z,15.12
2022-10-23T06:49:16.317Z,15.44
2022-10-23T06:50:16.463Z,14.88
2022-10-23T06:51:16.617Z,14.639999
2022-10-23T06:52:34.804Z,15.2
2022-10-23T06:53:16.931Z,15.44
2022-10-23T06:54:17.073Z,15.839999
2022-10-23T06:55:17.223Z,16.24
2022-10-23T06:56:17.376Z,16.8
2022-10-23T06:57:17.536Z,16.4
2022-10-23T06:58:17.682Z,16.24
2022-10-23T06:59:17.839Z,16.64
2022-10-23T07:00:18.002Z,17.28
2022-10-23T07:01:18.332Z,16.88
2022-10-23T07:02:18.242Z,17.12
2022-10-23T07:03:18.388Z,16.8
2022-10-23T07:04:18.552Z,16.88
2022-10-23T07:05:18.692Z,17.6
2022-10-23T07:06:18.847Z,17.92
2022-10-23T07:07:18.999Z,18.32
2022-10-23T07:08:19.153Z,18.32
2022-10-23T07:09:19.304Z,18.32
2022-10-23T07:10:19.459Z,17.68
2022-10-23T07:11:19.608Z,18.24
2022-10-23T07:12:19.754Z,18.88
2022-10-23T07:13:19.912Z,18.88
2022-10-23T07:14:20.066Z,19.28
2022-10-23T07:15:20.220Z,19.44
2022-10-23T07:16:20.353Z,20.4
2022-10-23T07:17:20.527Z,20.72
2022-10-23T07:18:20.736Z,20.32
2022-10-23T07:19:20.814Z,20
2022-10-23T07:20:20.969Z,20.08
2022-10-23T07:21:21.120Z,19.6
2022-10-23T07:22:21.271Z,18.64
2022-10-23T07:23:21.419Z,18.24
2022-10-23T07:24:21.582Z,18.64
2022-10-23T07:25:21.727Z,18.88
2022-10-23T07:26:21.888Z,19.92
2022-10-23T07:27:22.029Z,20
2022-10-23T07:28:22.184Z,19.52
2022-10-23T07:29:22.335Z,20.88
2022-10-23T07:30:22.486Z,21.52
2022-10-23T07:31:24.267Z,20.32
2022-10-23T07:32:22.744Z,20.24
2022-10-23T07:33:22.888Z,19.52
2022-10-23T07:34:23.634Z,19.92
2022-10-23T07:35:23.197Z,19.28
2022-10-23T07:36:23.338Z,19.44
2022-10-23T07:37:23.494Z,19.92
2022-10-23T07:38:23.635Z,20.08
2022-10-23T07:39:23.750Z,19.68
2022-10-23T07:40:23.887Z,20.32
2022-10-23T07:41:24.001Z,19.28
2022-10-23T07:42:24.112Z,19.28
2022-10-23T07:43:24.773Z,19.68
2022-10-23T07:44:25.683Z,20.08
2022-10-23T07:45:24.519Z,21.6
2022-10-23T07:46:24.651Z,21.6
2022-10-23T07:47:24.753Z,19.92
2022-10-23T07:48:24.866Z,19.68
2022-10-23T07:49:25.028Z,19.52
2022-10-23T07:50:25.250Z,19.92
2022-10-23T07:51:25.329Z,18.8
2022-10-23T07:52:25.519Z,18.88
2022-10-23T07:53:25.567Z,18.64
2022-10-23T07:54:25.727Z,18.24
2022-10-23T07:55:26.229Z,19.52
2022-10-23T07:56:25.919Z,19.28
2022-10-23T07:57:26.077Z,20.08
2022-10-23T07:58:26.184Z,21.2
2022-10-23T07:59:26.334Z,20.08
2022-10-23T08:00:26.490Z,19.52
2022-10-23T08:01:26.605Z,19.92
2022-10-23T08:02:26.726Z,19.76
2022-10-23T08:03:26.848Z,19.52
2022-10-23T08:04:26.994Z,19.44
2022-10-23T08:05:27.155Z,20.24
2022-10-23T08:06:27.297Z,20.64
2022-10-23T08:07:27.459Z,20
2022-10-23T08:08:27.603Z,18.88
2022-10-23T08:09:27.719Z,19.2
2022-10-23T08:10:27.797Z,19.68
2022-10-23T08:11:27.961Z,19.68
2022-10-23T08:12:28.112Z,20.24
2022-10-23T08:13:28.259Z,20.32
2022-10-23T08:14:28.415Z,19.92
2022-10-23T08:15:28.513Z,19.68
2022-10-23T08:16:28.620Z,19.76
2022-10-23T08:17:28.757Z,19.2
2022-10-23T08:18:28.869Z,19.12
2022-10-23T08:19:29.016Z,20.08
2022-10-23T08:20:29.128Z,19.2
2022-10-23T08:21:29.270Z,20.4
2022-10-23T08:22:29.378Z,20.48
2022-10-23T08:23:29.529Z,20.64
2022-10-23T08:24:29.682Z,19.92
2022-10-23T08:25:29.830Z,19.28
2022-10-23T08:26:29.926Z,19.2
2022-10-23T08:27:30.526Z,19.52
2022-10-23T08:28:30.184Z,20.72
2022-10-23T08:29:30.931Z,19.92
2022-10-23T08:30:30.856Z,19.68
2022-10-23T08:31:30.583Z,19.2
2022-10-23T08:32:30.746Z,19.68
2022-10-23T08:33:30.844Z,19.76
2022-10-23T08:34:31.001Z,19.92
2022-10-23T08:35:31.150Z,20.32
2022-10-23T08:36:31.299Z,20.24
2022-10-23T08:37:31.447Z,19.52
2022-10-23T08:38:31.605Z,20.24
2022-10-23T08:39:31.754Z,20
2022-10-23T08:40:31.917Z,20.4
2022-10-23T08:41:32.053Z,20.32
2022-10-23T08:42:32.209Z,20.64
2022-10-23T08:43:32.370Z,20.8
2022-10-23T08:44:32.525Z,20.8
2022-10-23T08:45:32.668Z,21.52
2022-10-23T08:46:32.753Z,20.32
2022-10-23T08:47:32.909Z,19.76
2022-10-23T08:48:33.074Z,19.44
2022-10-23T08:49:33.222Z,19.6
2022-10-23T08:50:33.326Z,19.28
2022-10-23T08:51:33.471Z,19.28
2022-10-23T08:52:33.629Z,19.52
2022-10-23T08:53:33.782Z,19.28
2022-10-23T08:54:33.940Z,19.12
2022-10-23T08:55:34.081Z,19.68
2022-10-23T08:56:34.182Z,20.24
2022-10-23T08:57:34.331Z,19.52
2022-10-23T08:58:34.492Z,19.52
2022-10-23T08:59:34.652Z,20
2022-10-23T09:00:34.794Z,19.76
2022-10-23T09:01:35.025Z,19.76
2022-10-23T09:02:35.087Z,20.24
2022-10-23T09:03:35.246Z,19.76
2022-10-23T09:04:35.340Z,19.92
2022-10-23T09:05:35.487Z,19.92
2022-10-23T09:06:35.643Z,19.2
2022-10-23T09:07:35.786Z,19.12
2022-10-23T09:08:35.902Z,19.52
2022-10-23T09:09:36.058Z,18.72
2022-10-23T09:10:36.204Z,18.72
2022-10-23T09:11:36.363Z,18.48
2022-10-23T09:12:36.506Z,18.64
2022-10-23T09:13:36.665Z,18.72
2022-10-23T09:14:36.816Z,19.04
2022-10-23T09:15:36.963Z,18.72
2022-10-23T09:16:37.107Z,18.72
2022-10-23T09:17:37.270Z,18.64
2022-10-23T09:18:37.433Z,18.24
2022-10-23T09:19:37.577Z,18.24
2022-10-23T09:20:37.723Z,18.24
2022-10-23T09:21:37.829Z,18.24
2022-10-23T09:22:37.920Z,18.32
2022-10-23T09:23:38.085Z,18.08
2022-10-23T09:24:38.234Z,18.08
2022-10-23T09:25:38.382Z,18.24
2022-10-23T09:26:38.538Z,18.08
2022-10-23T09:27:38.683Z,18.24
2022-10-23T09:28:38.843Z,18.48
2022-10-23T09:29:38.990Z,18.24
2022-10-23T09:30:39.125Z,18.72
2022-10-23T09:31:39.294Z,18.64
2022-10-23T09:32:39.444Z,18.48
2022-10-23T09:33:39.605Z,18.72
2022-10-23T09:34:39.766Z,18.64
2022-10-23T09:35:39.911Z,18.72
2022-10-23T09:36:40.043Z,18.88
2022-10-23T09:37:40.375Z,19.12
2022-10-23T09:38:40.309Z,19.44
2022-10-23T09:39:40.456Z,18.88
2022-10-23T09:40:40.622Z,18.8
2022-10-23T09:41:40.761Z,19.04
2022-10-23T09:42:40.923Z,19.04
2022-10-23T09:43:41.063Z,18.64
2022-10-23T09:44:41.222Z,19.04
2022-10-23T09:45:41.355Z,19.04
2022-10-23T09:46:41.520Z,19.12
2022-10-23T09:47:41.855Z,19.12
2022-10-23T09:48:41.768Z,19.44
2022-10-23T09:49:41.938Z,19.44
2022-10-23T09:50:42.085Z,19.68
2022-10-23T09:51:42.171Z,19.76
2022-10-23T09:52:42.277Z,19.92
2022-10-23T09:53:42.417Z,20.08
2022-10-23T09:54:42.577Z,20.72
2022-10-23T09:55:42.733Z,20
2022-10-23T09:56:42.904Z,20.24
2022-10-23T09:57:43.158Z,20.24
2022-10-23T09:58:43.139Z,20.48
2022-10-23T09:59:43.295Z,21.12
2022-10-23T10:00:43.445Z,20.72
2022-10-23T10:01:43.631Z,21.04
2022-10-23T10:02:43.742Z,20.72
2022-10-23T10:03:43.897Z,21.6
2022-10-23T10:04:44.041Z,22
2022-10-23T10:05:44.140Z,21.28
2022-10-23T10:06:44.985Z,20.64
2022-10-23T10:07:44.616Z,20.8
2022-10-23T10:08:44.570Z,21.6
2022-10-23T10:09:44.699Z,21.28
2022-10-23T10:10:44.844Z,21.44
2022-10-23T10:11:45.006Z,22.08
2022-10-23T10:12:45.166Z,21.68
2022-10-23T10:13:45.315Z,21.84
2022-10-23T10:14:45.412Z,22.24
2022-10-23T10:15:45.551Z,22
2022-10-23T10:16:45.655Z,22.24
2022-10-23T10:17:45.941Z,21.68
2022-10-23T10:18:45.971Z,22.48
2022-10-23T10:19:46.078Z,22.72
2022-10-23T10:20:46.223Z,22.4
2022-10-23T10:21:46.379Z,22.48
2022-10-23T10:22:46.477Z,23.04
2022-10-23T10:23:46.637Z,22.64
2022-10-23T10:24:46.787Z,22.48
2022-10-23T10:25:51.212Z,22.48
2022-10-23T10:26:47.074Z,22.08
2022-10-23T10:27:47.237Z,22.64
2022-10-23T10:28:47.341Z,22
2022-10-23T10:29:47.440Z,22
2022-10-23T10:30:47.578Z,21.84
2022-10-23T10:31:49.403Z,22
2022-10-23T10:32:47.896Z,22.24
2022-10-23T10:33:47.995Z,22.08
2022-10-23T10:34:48.098Z,22
2022-10-23T10:35:48.245Z,21.92
2022-10-23T10:36:48.370Z,22
2022-10-23T10:37:49.337Z,22.4
2022-10-23T10:38:48.606Z,23.04
2022-10-23T10:39:48.771Z,23.2
2022-10-23T10:40:48.893Z,22.4
2022-10-23T10:41:49.058Z,22.64
2022-10-23T10:42:49.216Z,22.4
2022-10-23T10:43:49.374Z,21.52
2022-10-23T10:44:49.523Z,21.04
2022-10-23T10:45:49.654Z,20.72
2022-10-23T10:46:49.823Z,21.04
2022-10-23T10:47:49.971Z,20.64
2022-10-23T10:48:50.117Z,20.48
2022-10-23T10:49:50.273Z,20.72
2022-10-23T10:50:50.424Z,20.4
2022-10-23T10:51:50.577Z,20.24
2022-10-23T10:52:50.724Z,20.24
2022-10-23T10:53:50.882Z,20.08
2022-10-23T10:54:51.032Z,20.08
2022-10-23T10:55:51.136Z,20.08
2022-10-23T10:56:51.293Z,20
2022-10-23T10:57:51.397Z,20.24
2022-10-23T10:58:51.538Z,20
2022-10-23T10:59:51.696Z,19.92
2022-10-23T11:00:51.865Z,19.92
2022-10-23T11:01:52.086Z,20
2022-10-23T11:02:52.106Z,20
2022-10-23T11:03:52.253Z,19.92
2022-10-23T11:04:52.402Z,20
2022-10-23T11:05:52.591Z,20.08
2022-10-23T11:06:52.657Z,19.92
2022-10-23T11:07:52.754Z,20
2022-10-23T11:08:57.750Z,20.08
2022-10-23T11:09:53.065Z,20.08
2022-10-23T11:10:53.212Z,20
2022-10-23T11:11:53.313Z,20
2022-10-23T11:12:53.459Z,20.24
2022-10-23T11:13:53.620Z,20.4
2022-10-23T11:14:53.770Z,20.24
2022-10-23T11:15:53.862Z,20.32
2022-10-23T11:16:53.967Z,20.08
2022-10-23T11:17:54.123Z,20.24
2022-10-23T11:18:54.284Z,20.4
2022-10-23T11:19:54.438Z,20.48
2022-10-23T11:20:54.582Z,20.4
2022-10-23T11:21:54.726Z,20.32
2022-10-23T11:22:54.879Z,20.24
2022-10-23T11:23:55.031Z,19.92
2022-10-23T11:24:55.764Z,20
2022-10-23T11:25:55.333Z,20.32
2022-10-23T11:26:55.488Z,20.48
2022-10-23T11:27:56.567Z,20.64
2022-10-23T11:28:55.747Z,20.48
2022-10-23T11:29:55.842Z,20.64
2022-10-23T11:30:55.981Z,20.24
2022-10-23T11:31:56.144Z,20.32
2022-10-23T11:32:56.246Z,20.4
2022-10-23T11:33:56.353Z,20
2022-10-23T11:34:56.503Z,19.92
2022-10-23T11:35:56.658Z,19.92
2022-10-23T11:36:56.807Z,20.08
2022-10-23T11:37:56.916Z,19.92
2022-10-23T11:38:57.011Z,20.24
2022-10-23T11:39:57.167Z,20.4
2022-10-23T11:40:57.309Z,20.4
2022-10-23T11:41:57.467Z,20.4
2022-10-23T11:42:57.610Z,20.32
2022-10-23T11:43:57.769Z,20.08
2022-10-23T11:44:57.868Z,20.4
2022-10-23T11:45:58.048Z,19.92
2022-10-23T11:46:58.175Z,19.92
2022-10-23T11:47:58.209Z,19.68
2022-10-23T11:48:58.461Z,19.68
2022-10-23T11:49:58.524Z,19.76
2022-10-23T11:50:59.185Z,19.6
2022-10-23T11:51:58.831Z,19.68
2022-10-23T11:53:12.728Z,19.52
2022-10-23T11:53:59.077Z,19.6
2022-10-23T11:54:59.249Z,19.76
2022-10-23T11:55:59.409Z,19.68
2022-10-23T11:56:59.544Z,19.92
2022-10-23T11:57:59.639Z,19.92
2022-10-23T11:58:59.787Z,19.92
2022-10-23T11:59:59.951Z,19.6
2022-10-23T12:01:00.104Z,19.6
2022-10-23T12:02:00.250Z,19.52
2022-10-23T12:03:00.436Z,19.2
2022-10-23T12:04:00.498Z,19.28
2022-10-23T12:05:00.655Z,19.2
2022-10-23T12:06:00.833Z,18.88
2022-10-23T12:07:00.964Z,18.88
2022-10-23T12:08:01.107Z,18.88
2022-10-23T12:09:01.260Z,19.04
2022-10-23T12:10:01.418Z,18.88
2022-10-23T12:11:01.579Z,18.88
2022-10-23T12:12:01.707Z,18.88
2022-10-23T12:13:01.800Z,18.88
2022-10-23T12:14:01.988Z,18.72
2022-10-23T12:15:02.131Z,18.88
2022-10-23T12:16:02.277Z,18.88
2022-10-23T12:17:02.419Z,18.88
2022-10-23T12:18:02.547Z,18.8
2022-10-23T12:19:02.658Z,19.04
2022-10-23T12:20:02.828Z,19.04
2022-10-23T12:21:02.978Z,18.88
2022-10-23T12:22:03.131Z,18.88
2022-10-23T12:23:03.289Z,19.12
2022-10-23T12:24:03.437Z,19.12
2022-10-23T12:25:03.539Z,19.12
2022-10-23T12:26:03.684Z,18.88
2022-10-23T12:27:03.845Z,18.8
2022-10-23T12:28:04.004Z,19.04
2022-10-23T12:29:04.164Z,18.88
2022-10-23T12:30:04.293Z,18.88
2022-10-23T12:31:04.432Z,19.12
2022-10-23T12:32:04.530Z,18.88
2022-10-23T12:33:04.649Z,19.12
2022-10-23T12:34:04.795Z,18.88
2022-10-23T12:35:04.929Z,19.12
2022-10-23T12:36:05.049Z,19.12
2022-10-23T12:37:05.211Z,18.88
2022-10-23T12:38:05.352Z,18.8
2022-10-23T12:39:05.549Z,18.88
2022-10-23T12:40:05.647Z,19.04
2022-10-23T12:41:05.748Z,19.04
2022-10-23T12:42:05.913Z,19.12
2022-10-23T12:43:06.070Z,19.2
2022-10-23T12:44:06.223Z,19.28
2022-10-23T12:45:06.381Z,19.12
2022-10-23T12:46:06.508Z,19.12
2022-10-23T12:47:06.661Z,19.2
2022-10-23T12:48:06.822Z,19.04
2022-10-23T12:49:06.974Z,18.88
2022-10-23T12:50:07.133Z,19.04
2022-10-23T12:51:07.236Z,19.04
2022-10-23T12:52:07.376Z,18.88
2022-10-23T12:53:07.536Z,18.88
2022-10-23T12:54:07.680Z,18.88
2022-10-23T12:55:07.789Z,19.04
2022-10-23T12:56:07.939Z,19.12
2022-10-23T12:57:08.085Z,19.04
2022-10-23T12:58:08.189Z,18.88
2022-10-23T12:59:08.344Z,19.12
2022-10-23T13:00:08.535Z,18.88
2022-10-23T13:01:08.720Z,18.88
2022-10-23T13:02:08.887Z,19.04
2022-10-23T13:03:08.958Z,18.88
2022-10-23T13:04:09.164Z,18.88
2022-10-23T13:05:09.252Z,18.88
2022-10-23T13:06:09.398Z,19.04
2022-10-23T13:07:09.558Z,18.88
2022-10-23T13:08:09.706Z,19.04
2022-10-23T13:09:09.810Z,18.88